createdAt,value
2019-01-24T00:01:18.418Z,8.00
2019-01-24T00:03:48.390Z,7.93
2019-01-24T00:06:18.375Z,7.90
2019-01-24T00:08:48.347Z,8.20
2019-01-24T00:11:19.300Z,7.60
2019-01-24T00:13:49.252Z,7.43
2019-01-24T00:16:19.216Z,7.90
2019-01-24T00:18:49.279Z,7.83
2019-01-24T00:21:19.234Z,7.80
2019-01-24T00:23:49.217Z,7.60
2019-01-24T00:26:19.167Z,7.50
2019-01-24T00:28:49.128Z,7.50
2019-01-24T00:31:19.174Z,7.53
2019-01-24T00:33:49.163Z,7.27
2019-01-24T00:36:19.205Z,7.47
2019-01-24T00:38:49.183Z,7.93
2019-01-24T00:41:19.144Z,7.60
2019-01-24T00:43:49.103Z,7.20
2019-01-24T00:46:19.186Z,7.20
2019-01-24T00:48:49.142Z,6.70
2019-01-24T00:51:19.125Z,7.87
2019-01-24T00:53:49.093Z,7.70
2019-01-24T00:56:19.062Z,7.30
2019-01-24T00:58:49.094Z,7.13
2019-01-24T01:01:19.086Z,7.23
2019-01-24T01:03:49.030Z,7.57
2019-01-24T01:06:19.030Z,6.73
2019-01-24T01:08:48.974Z,6.87
2019-01-24T01:11:18.937Z,6.70
2019-01-24T01:13:48.945Z,6.70
2019-01-24T01:16:18.929Z,6.80
2019-01-24T01:18:48.931Z,6.47
2019-01-24T01:21:18.879Z,6.43
2019-01-24T01:23:48.830Z,6.80
2019-01-24T01:26:18.790Z,6.50
2019-01-24T01:28:48.754Z,6.50
2019-01-24T01:31:18.706Z,6.50
2019-01-24T01:33:48.662Z,6.43
2019-01-24T01:36:18.641Z,6.37
2019-01-24T01:38:48.599Z,6.70
2019-01-24T01:41:18.593Z,6.17
2019-01-24T01:43:48.562Z,6.17
2019-01-24T01:46:18.524Z,6.33
2019-01-24T01:48:48.473Z,6.30
2019-01-24T01:51:18.455Z,5.83
2019-01-24T01:53:48.417Z,6.03
2019-01-24T01:56:18.365Z,6.23
2019-01-24T01:58:48.331Z,6.10
2019-01-24T02:01:18.284Z,5.63
2019-01-24T02:03:48.270Z,5.80
2019-01-24T02:06:18.219Z,6.20
2019-01-24T02:08:48.197Z,6.20
2019-01-24T02:11:18.206Z,6.13
2019-01-24T02:13:49.879Z,5.80
2019-01-24T02:16:19.839Z,5.80
2019-01-24T02:18:49.786Z,5.23
2019-01-24T02:21:19.773Z,5.60
2019-01-24T02:23:49.725Z,5.57
2019-01-24T02:26:19.686Z,5.97
2019-01-24T02:28:49.650Z,5.50
2019-01-24T02:31:19.637Z,5.20
2019-01-24T02:33:49.610Z,5.40
2019-01-24T02:36:19.568Z,5.70
2019-01-24T02:38:49.512Z,5.67
2019-01-24T02:41:19.478Z,5.70
2019-01-24T02:43:49.462Z,5.87
2019-01-24T02:46:19.413Z,6.03
2019-01-24T02:48:49.369Z,5.57
2019-01-24T02:51:19.325Z,5.00
2019-01-24T02:53:49.283Z,5.27
2019-01-24T02:56:19.252Z,5.33
2019-01-24T02:58:49.271Z,5.70
2019-01-24T03:01:19.267Z,5.50
2019-01-24T03:03:49.222Z,4.90
2019-01-24T03:06:19.190Z,4.80
2019-01-24T03:08:49.225Z,4.93
2019-01-24T03:11:19.174Z,5.10
2019-01-24T03:13:49.139Z,5.50
2019-01-24T03:16:19.105Z,5.40
2019-01-24T03:18:49.103Z,5.10
2019-01-24T03:21:19.050Z,5.03
2019-01-24T03:23:49.103Z,4.97
2019-01-24T03:26:19.050Z,4.97
2019-01-24T03:28:49.014Z,4.80
2019-01-24T03:31:19.009Z,5.00
2019-01-24T03:33:49.029Z,4.50
2019-01-24T03:36:18.976Z,5.00
2019-01-24T03:38:48.927Z,5.20
2019-01-24T03:41:18.892Z,4.80
2019-01-24T03:43:48.951Z,4.70
2019-01-24T03:46:19.005Z,4.70
2019-01-24T03:48:48.970Z,4.67
2019-01-24T03:51:18.997Z,4.57
2019-01-24T03:53:48.965Z,4.73
2019-01-24T03:56:18.968Z,4.47
2019-01-24T03:58:48.982Z,4.40
2019-01-24T04:01:18.941Z,4.30
2019-01-24T04:03:48.906Z,4.40
2019-01-24T04:06:18.926Z,4.60
2019-01-24T04:08:48.915Z,4.57
2019-01-24T04:11:18.866Z,3.97
2019-01-24T04:13:48.863Z,4.50
2019-01-24T04:16:18.950Z,4.40
2019-01-24T04:18:48.959Z,4.10
2019-01-24T04:21:18.918Z,4.30
2019-01-24T04:23:48.881Z,4.00
2019-01-24T04:26:18.882Z,4.13
2019-01-24T04:28:48.859Z,4.40
2019-01-24T04:31:18.908Z,4.27
2019-01-24T04:33:48.926Z,4.07
2019-01-24T04:36:18.885Z,4.40
2019-01-24T04:38:48.842Z,4.13
2019-01-24T04:41:18.801Z,3.80
2019-01-24T04:43:48.786Z,4.07
2019-01-24T04:46:18.750Z,4.10
2019-01-24T04:48:48.726Z,4.13
2019-01-24T04:51:18.729Z,3.90
2019-01-24T04:53:48.798Z,3.87
2019-01-24T04:56:18.757Z,3.47
2019-01-24T04:58:48.742Z,4.13
2019-01-24T05:01:18.700Z,3.80
2019-01-24T05:03:48.726Z,4.07
2019-01-24T05:06:18.685Z,3.90
2019-01-24T05:08:48.720Z,4.03
2019-01-24T05:11:18.717Z,4.00
2019-01-24T05:13:48.747Z,3.80
2019-01-24T05:16:18.781Z,4.00
2019-01-24T05:18:48.730Z,4.10
2019-01-24T05:21:18.700Z,4.13
2019-01-24T05:23:48.692Z,4.03
2019-01-24T05:26:18.677Z,4.60
2019-01-24T05:28:48.627Z,4.17
2019-01-24T05:31:18.663Z,4.53
2019-01-24T05:33:48.644Z,4.43
2019-01-24T05:36:18.616Z,5.07
2019-01-24T05:38:48.608Z,4.77
2019-01-24T05:41:18.565Z,4.50
2019-01-24T05:43:48.529Z,4.60
2019-01-24T05:46:18.486Z,5.00
2019-01-24T05:48:48.462Z,4.80
2019-01-24T05:51:18.426Z,4.70
2019-01-24T05:53:48.397Z,4.60
2019-01-24T05:56:18.386Z,4.90
2019-01-24T05:58:48.422Z,4.90
2019-01-24T06:01:20.470Z,4.77
2019-01-24T06:03:50.641Z,4.73
2019-01-24T06:06:20.630Z,5.13
2019-01-24T06:08:50.590Z,4.60
2019-01-24T06:11:20.582Z,4.63
2019-01-24T06:13:50.537Z,4.80
2019-01-24T06:16:20.502Z,4.63
2019-01-24T06:18:50.484Z,5.00
2019-01-24T06:21:20.558Z,4.83
2019-01-24T06:23:50.533Z,4.97
2019-01-24T06:26:20.502Z,4.60
2019-01-24T06:28:50.537Z,5.03
2019-01-24T06:31:20.508Z,4.53
2019-01-24T06:33:50.490Z,4.57
2019-01-24T06:36:20.437Z,4.43
2019-01-24T06:38:50.399Z,4.50
2019-01-24T06:41:20.356Z,4.93
2019-01-24T06:43:50.314Z,4.57
2019-01-24T06:46:20.282Z,5.00
2019-01-24T06:48:50.289Z,4.77
2019-01-24T06:51:20.256Z,4.57
2019-01-24T06:53:50.202Z,5.00
2019-01-24T06:56:20.257Z,5.40
2019-01-24T06:58:50.213Z,4.73
2019-01-24T07:01:20.197Z,4.80
2019-01-24T07:03:50.167Z,5.23
2019-01-24T07:06:20.219Z,5.60
2019-01-24T07:08:50.172Z,5.30
2019-01-24T07:11:21.105Z,4.90
2019-01-24T07:13:51.114Z,4.90
2019-01-24T07:16:21.091Z,5.13
2019-01-24T07:18:51.038Z,5.30
2019-01-24T07:21:21.026Z,5.40
2019-01-24T07:23:50.985Z,5.40
2019-01-24T07:26:20.941Z,4.93
2019-01-24T07:28:50.901Z,4.93
2019-01-24T07:31:20.866Z,4.97
2019-01-24T07:33:50.825Z,5.00
2019-01-24T07:36:20.810Z,4.80
2019-01-24T07:38:50.790Z,4.97
2019-01-24T07:41:20.758Z,4.90
2019-01-24T07:43:50.714Z,5.37
2019-01-24T07:46:20.679Z,5.30
2019-01-24T07:48:50.633Z,4.80
2019-01-24T07:51:20.593Z,5.17
2019-01-24T07:53:50.589Z,4.83
2019-01-24T07:56:20.541Z,4.90
2019-01-24T07:58:50.509Z,5.20
2019-01-24T08:01:20.482Z,4.80
2019-01-24T08:03:50.454Z,4.80
2019-01-24T08:06:20.506Z,4.87
2019-01-24T08:08:50.462Z,5.37
2019-01-24T08:11:20.431Z,5.07
2019-01-24T08:13:50.395Z,5.30
2019-01-24T08:16:20.350Z,4.73
2019-01-24T08:18:50.301Z,4.93
2019-01-24T08:21:20.262Z,4.87
2019-01-24T08:23:50.264Z,5.17
2019-01-24T08:26:20.222Z,5.30
2019-01-24T08:28:50.186Z,5.20
2019-01-24T08:31:20.190Z,4.70
2019-01-24T08:33:50.207Z,4.80
2019-01-24T08:36:20.307Z,5.10
2019-01-24T08:38:50.271Z,4.80
2019-01-24T08:41:20.235Z,5.00
2019-01-24T08:43:50.194Z,5.00
2019-01-24T08:46:20.174Z,4.93
2019-01-24T08:48:50.126Z,5.00
2019-01-24T08:51:20.096Z,4.80
2019-01-24T08:53:50.085Z,4.90
2019-01-24T08:56:20.029Z,5.47
2019-01-24T08:58:50.037Z,4.67
2019-01-24T09:01:20.061Z,4.73
2019-01-24T09:03:50.011Z,4.90
2019-01-24T09:06:22.659Z,4.90
2019-01-24T09:08:51.615Z,5.00
2019-01-24T09:11:21.678Z,5.07
2019-01-24T09:13:51.734Z,5.10
2019-01-24T09:16:21.677Z,4.80
2019-01-24T09:18:51.625Z,5.03
2019-01-24T09:21:22.554Z,5.67
2019-01-24T09:23:52.518Z,5.63
2019-01-24T09:26:22.484Z,7.00
2019-01-24T09:28:52.469Z,9.13
2019-01-24T09:31:22.427Z,9.10
2019-01-24T09:33:52.395Z,8.73
2019-01-24T09:36:22.360Z,8.03
2019-01-24T09:38:52.334Z,8.13
2019-01-24T09:41:22.397Z,6.93
2019-01-24T09:43:52.443Z,7.23
2019-01-24T09:46:22.408Z,6.97
2019-01-24T09:48:52.367Z,7.20
2019-01-24T09:51:22.329Z,7.33
2019-01-24T09:53:52.300Z,6.73
2019-01-24T09:56:22.296Z,7.00
2019-01-24T09:58:52.293Z,6.97
2019-01-24T10:01:22.269Z,6.43
2019-01-24T10:03:52.277Z,6.83
2019-01-24T10:06:22.316Z,6.73
2019-01-24T10:08:52.272Z,6.60
2019-01-24T10:11:23.637Z,6.37
2019-01-24T10:13:53.719Z,6.93
2019-01-24T10:16:23.774Z,6.53
2019-01-24T10:18:53.754Z,6.60
2019-01-24T10:21:23.715Z,6.90
2019-01-24T10:23:53.795Z,7.07
2019-01-24T10:26:23.949Z,6.80
2019-01-24T10:28:54.056Z,7.50
2019-01-24T10:31:24.179Z,7.20
2019-01-24T10:33:55.278Z,8.93
2019-01-24T10:36:25.245Z,9.40
2019-01-24T10:38:55.464Z,10.50
2019-01-24T10:41:25.422Z,11.33
2019-01-24T10:43:55.384Z,12.57
2019-01-24T10:46:25.354Z,14.17
2019-01-24T10:48:55.348Z,13.17
2019-01-24T10:51:25.386Z,12.10
2019-01-24T10:53:55.350Z,11.73
2019-01-24T10:56:25.309Z,11.20
2019-01-24T10:58:55.333Z,11.20
2019-01-24T11:01:25.309Z,10.70
2019-01-24T11:03:55.262Z,10.53
2019-01-24T11:06:25.294Z,10.47
2019-01-24T11:08:55.253Z,9.97
2019-01-24T11:11:25.209Z,10.40
2019-01-24T11:13:55.200Z,10.03
2019-01-24T11:16:25.206Z,9.80
2019-01-24T11:18:55.192Z,9.13
2019-01-24T11:21:25.066Z,9.37
2019-01-24T11:23:55.009Z,8.97
2019-01-24T11:26:24.867Z,9.17
2019-01-24T11:28:54.747Z,9.47
2019-01-24T11:31:24.680Z,9.20
2019-01-24T11:33:54.639Z,9.23
2019-01-24T11:36:24.545Z,10.10
2019-01-24T11:38:54.557Z,9.90
2019-01-24T11:41:24.423Z,10.23
2019-01-24T11:43:54.360Z,10.03
2019-01-24T11:46:24.213Z,10.60
2019-01-24T11:48:54.148Z,12.60
2019-01-24T11:51:24.010Z,12.87
2019-01-24T11:53:53.962Z,12.50
2019-01-24T11:56:23.973Z,13.00
2019-01-24T11:58:53.777Z,13.50
2019-01-24T12:01:23.718Z,12.60
2019-01-24T12:03:53.649Z,12.67
2019-01-24T12:06:23.554Z,12.53
2019-01-24T12:08:53.487Z,12.20
2019-01-24T12:11:23.420Z,12.90
2019-01-24T12:13:53.486Z,12.80
2019-01-24T12:16:23.433Z,13.27
2019-01-24T12:18:53.315Z,13.60
2019-01-24T12:21:23.243Z,14.17
2019-01-24T12:23:53.232Z,13.57
2019-01-24T12:26:23.178Z,13.33
2019-01-24T12:28:53.252Z,14.40
2019-01-24T12:31:23.231Z,13.77
2019-01-24T12:33:53.170Z,13.70
2019-01-24T12:36:23.047Z,14.40
2019-01-24T12:38:52.974Z,13.13
2019-01-24T12:41:22.914Z,13.43
2019-01-24T12:43:52.780Z,12.40
2019-01-24T12:46:22.651Z,19.20
2019-01-24T12:48:52.506Z,29.40
2019-01-24T12:51:22.383Z,29.40
2019-01-24T12:53:52.261Z,28.53
2019-01-24T12:56:22.121Z,30.40
2019-01-24T12:58:52.154Z,19.63
2019-01-24T13:01:22.094Z,20.53
2019-01-24T13:03:52.435Z,20.27
2019-01-24T13:06:22.388Z,33.33
2019-01-24T13:08:52.313Z,26.43
2019-01-24T13:11:22.250Z,27.00
2019-01-24T13:13:52.192Z,26.20
2019-01-24T13:16:22.158Z,25.00
2019-01-24T13:18:52.178Z,25.80
2019-01-24T13:21:22.089Z,25.07
2019-01-24T13:23:51.878Z,24.37
2019-01-24T13:26:21.822Z,22.80
2019-01-24T13:28:51.806Z,21.60
2019-01-24T13:31:21.675Z,22.33
2019-01-24T13:33:51.554Z,22.50
2019-01-24T13:36:21.558Z,20.43
2019-01-24T13:38:51.471Z,21.83
2019-01-24T13:41:21.343Z,21.13
2019-01-24T13:43:51.298Z,19.93
2019-01-24T13:46:21.289Z,20.30
2019-01-24T13:48:51.138Z,19.70
2019-01-24T13:51:21.002Z,19.10
2019-01-24T13:53:50.845Z,18.67
2019-01-24T13:56:20.712Z,18.53
2019-01-24T13:58:50.633Z,17.90
2019-01-24T14:01:20.488Z,17.83
2019-01-24T14:03:58.164Z,16.23
2019-01-24T14:06:28.114Z,15.43
2019-01-24T14:08:58.033Z,15.50
2019-01-24T14:11:27.903Z,15.83
2019-01-24T14:13:57.894Z,16.37
2019-01-24T14:16:27.766Z,15.33
2019-01-24T14:18:57.617Z,14.63
2019-01-24T14:21:27.569Z,14.40
2019-01-24T14:23:57.418Z,14.20
2019-01-24T14:26:27.350Z,14.03
2019-01-24T14:28:57.329Z,13.97
2019-01-24T14:31:28.273Z,13.13
2019-01-24T14:33:58.294Z,12.73
2019-01-24T14:36:28.218Z,13.37
2019-01-24T14:38:58.068Z,12.13
2019-01-24T14:41:27.970Z,12.50
2019-01-24T14:43:58.801Z,12.07
2019-01-24T14:46:28.850Z,11.83
2019-01-24T14:48:58.790Z,11.70
2019-01-24T14:51:28.658Z,12.17
2019-01-24T14:53:58.523Z,11.47
2019-01-24T14:56:28.454Z,10.93
2019-01-24T14:58:58.326Z,13.20
2019-01-24T15:01:28.420Z,13.07
2019-01-24T15:03:58.353Z,12.90
2019-01-24T15:06:28.289Z,11.87
2019-01-24T15:08:58.158Z,11.90
2019-01-24T15:11:28.044Z,11.30
2019-01-24T15:13:57.914Z,11.00
2019-01-24T15:16:27.774Z,10.83
2019-01-24T15:18:57.633Z,10.50
2019-01-24T15:21:27.570Z,10.10
2019-01-24T15:23:57.527Z,10.27
2019-01-24T15:26:27.386Z,9.53
2019-01-24T15:28:57.377Z,9.90
2019-01-24T15:31:27.305Z,9.47
2019-01-24T15:33:58.450Z,9.30
2019-01-24T15:36:28.514Z,9.03
2019-01-24T15:38:59.405Z,8.63
2019-01-24T15:41:29.386Z,9.27
2019-01-24T15:43:59.310Z,8.70
2019-01-24T15:46:29.266Z,8.90
2019-01-24T15:48:59.126Z,9.10
2019-01-24T15:51:28.942Z,8.80
2019-01-24T15:53:58.889Z,8.90
2019-01-24T15:56:28.745Z,9.03
2019-01-24T15:58:58.635Z,8.93
2019-01-24T16:01:28.491Z,9.43
2019-01-24T16:03:58.445Z,9.10
2019-01-24T16:06:28.387Z,9.10
2019-01-24T16:08:58.335Z,9.97
2019-01-24T16:11:28.222Z,10.03
2019-01-24T16:13:58.095Z,9.30
2019-01-24T16:16:28.033Z,9.57
2019-01-24T16:18:57.982Z,10.07
2019-01-24T16:21:27.906Z,9.60
2019-01-24T16:23:57.817Z,10.00
2019-01-24T16:26:27.696Z,9.43
2019-01-24T16:28:57.687Z,9.90
2019-01-24T16:31:27.661Z,10.10
2019-01-24T16:33:57.621Z,9.73
2019-01-24T16:36:27.593Z,9.33
2019-01-24T16:38:57.521Z,10.00
2019-01-24T16:41:27.638Z,9.10
2019-01-24T16:43:57.578Z,9.97
2019-01-24T16:46:27.446Z,8.90
2019-01-24T16:48:57.334Z,10.17
2019-01-24T16:51:27.358Z,9.73
2019-01-24T16:53:57.324Z,9.27
2019-01-24T16:56:27.272Z,9.67
2019-01-24T16:58:57.178Z,11.37
2019-01-24T17:01:27.113Z,14.00
2019-01-24T17:03:57.164Z,19.17
2019-01-24T17:06:27.030Z,13.40
2019-01-24T17:08:57.030Z,12.70
2019-01-24T17:11:27.027Z,14.97
2019-01-24T17:13:57.135Z,15.73
2019-01-24T17:16:27.029Z,15.73
2019-01-24T17:18:56.979Z,14.27
2019-01-24T17:21:26.937Z,14.77
2019-01-24T17:23:56.954Z,14.43
2019-01-24T17:26:26.933Z,15.03
2019-01-24T17:28:56.904Z,14.10
2019-01-24T17:31:28.246Z,15.23
2019-01-24T17:33:58.401Z,14.90
2019-01-24T17:36:28.398Z,15.27
2019-01-24T17:38:58.366Z,15.90
2019-01-24T17:41:28.375Z,14.97
2019-01-24T17:43:58.273Z,14.90
2019-01-24T17:46:28.225Z,15.63
2019-01-24T17:48:58.284Z,15.60
2019-01-24T17:51:28.390Z,14.87
2019-01-24T17:53:58.370Z,14.50
2019-01-24T17:56:28.314Z,15.03
2019-01-24T17:58:58.249Z,14.40
2019-01-24T18:01:28.269Z,14.13
2019-01-24T18:03:58.226Z,13.77
2019-01-24T18:06:29.255Z,13.60
2019-01-24T18:08:59.349Z,12.57
2019-01-24T18:11:29.316Z,13.63
2019-01-24T18:13:59.241Z,12.93
2019-01-24T18:16:29.198Z,12.67
2019-01-24T18:18:59.175Z,12.93
2019-01-24T18:21:29.115Z,12.63
2019-01-24T18:23:59.086Z,12.53
2019-01-24T18:26:29.175Z,12.80
2019-01-24T18:28:59.164Z,12.83
2019-01-24T18:31:29.026Z,12.77
2019-01-24T18:34:01.324Z,12.53
2019-01-24T18:36:31.450Z,12.10
2019-01-24T18:39:01.337Z,12.17
2019-01-24T18:41:31.202Z,12.13
2019-01-24T18:44:01.085Z,12.23
2019-01-24T18:46:31.045Z,11.50
2019-01-24T18:49:01.017Z,11.47
2019-01-24T18:51:32.226Z,11.97
2019-01-24T18:54:02.174Z,11.60
2019-01-24T18:56:32.189Z,11.40
2019-01-24T18:59:02.346Z,11.87
2019-01-24T19:01:32.321Z,11.60
2019-01-24T19:04:02.269Z,12.03
2019-01-24T19:06:33.191Z,11.23
2019-01-24T19:09:05.919Z,11.40
2019-01-24T19:11:36.190Z,11.50
2019-01-24T19:14:06.196Z,11.43
2019-01-24T19:16:36.330Z,11.50
2019-01-24T19:19:06.290Z,11.47
2019-01-24T19:21:36.330Z,11.43
2019-01-24T19:24:06.303Z,11.13
2019-01-24T19:26:36.295Z,11.00
2019-01-24T19:29:06.290Z,11.03
2019-01-24T19:31:36.249Z,10.10
2019-01-24T19:34:06.123Z,10.83
2019-01-24T19:36:36.132Z,11.30
2019-01-24T19:39:08.689Z,10.83
2019-01-24T19:41:38.844Z,11.40
2019-01-24T19:44:15.453Z,10.33
2019-01-24T19:46:40.571Z,10.10
2019-01-24T19:49:10.708Z,9.63
2019-01-24T19:51:41.013Z,10.70
2019-01-24T19:54:11.018Z,10.03
2019-01-24T19:56:41.001Z,10.43
2019-01-24T19:59:11.313Z,10.03
2019-01-24T20:01:41.265Z,10.13
2019-01-24T20:04:11.278Z,10.43
2019-01-24T20:06:41.205Z,9.93
2019-01-24T20:09:11.117Z,10.47
2019-01-24T20:11:41.101Z,10.27
2019-01-24T20:14:12.044Z,10.30
2019-01-24T20:16:41.987Z,9.97
2019-01-24T20:19:11.922Z,11.17
2019-01-24T20:21:41.843Z,9.90
2019-01-24T20:24:11.788Z,10.07
2019-01-24T20:26:41.772Z,10.27
2019-01-24T20:29:11.949Z,10.10
2019-01-24T20:31:42.047Z,10.00
2019-01-24T20:34:12.065Z,9.87
2019-01-24T20:36:42.151Z,10.13
2019-01-24T20:39:12.110Z,10.63
2019-01-24T20:41:42.058Z,10.07
2019-01-24T20:44:12.093Z,9.67
2019-01-24T20:46:42.070Z,10.47
2019-01-24T20:49:11.962Z,10.73
2019-01-24T20:51:41.932Z,9.80
2019-01-24T20:54:11.878Z,9.70
2019-01-24T20:56:41.730Z,10.27
2019-01-24T20:59:11.692Z,10.10
2019-01-24T21:01:41.556Z,10.17
2019-01-24T21:04:11.731Z,9.60
2019-01-24T21:06:41.655Z,9.90
2019-01-24T21:09:14.893Z,9.80
2019-01-24T21:11:43.285Z,9.97
2019-01-24T21:14:13.174Z,9.53
2019-01-24T21:16:43.130Z,9.67
2019-01-24T21:19:13.081Z,10.00
2019-01-24T21:21:43.059Z,9.50
2019-01-24T21:24:13.013Z,10.03
2019-01-24T21:26:42.894Z,9.57
2019-01-24T21:29:12.875Z,9.40
2019-01-24T21:31:42.784Z,9.10
2019-01-24T21:34:12.700Z,9.63
2019-01-24T21:36:42.742Z,9.20
2019-01-24T21:39:12.725Z,9.20
2019-01-24T21:41:42.772Z,9.20
2019-01-24T21:44:12.727Z,8.70
2019-01-24T21:46:42.739Z,8.83
2019-01-24T21:49:12.729Z,9.03
2019-01-24T21:51:42.754Z,8.70
2019-01-24T21:54:12.695Z,9.40
2019-01-24T21:56:42.870Z,9.30
2019-01-24T21:59:12.805Z,8.37
2019-01-24T22:01:43.147Z,8.40
2019-01-24T22:04:13.012Z,8.43
2019-01-24T22:06:42.886Z,8.30
2019-01-24T22:09:12.771Z,8.47
2019-01-24T22:11:42.713Z,8.57
2019-01-24T22:14:12.703Z,7.90
2019-01-24T22:16:42.678Z,8.13
2019-01-24T22:19:12.685Z,8.37
2019-01-24T22:21:42.568Z,8.17
2019-01-24T22:24:12.531Z,8.90
2019-01-24T22:26:42.455Z,8.63
2019-01-24T22:29:12.324Z,8.30
2019-01-24T22:31:43.148Z,8.30
2019-01-24T22:34:12.990Z,8.33
2019-01-24T22:36:42.890Z,7.70
2019-01-24T22:39:12.824Z,8.83
2019-01-24T22:41:43.045Z,8.70
2019-01-24T22:44:13.009Z,7.73
2019-01-24T22:46:42.942Z,8.53
2019-01-24T22:49:12.804Z,8.20
2019-01-24T22:51:42.742Z,7.80
2019-01-24T22:54:12.769Z,7.67
2019-01-24T22:56:42.697Z,8.13
2019-01-24T22:59:12.684Z,6.73
2019-01-24T23:01:56.049Z,7.90
2019-01-24T23:04:26.373Z,7.67
2019-01-24T23:06:56.397Z,7.70
2019-01-24T23:09:26.370Z,7.93
2019-01-24T23:11:56.316Z,7.90
2019-01-24T23:14:26.325Z,7.83
2019-01-24T23:16:56.282Z,7.10
2019-01-24T23:19:26.186Z,7.47
2019-01-24T23:21:55.966Z,7.20
2019-01-24T23:24:25.818Z,6.77
2019-01-24T23:26:55.874Z,7.50
2019-01-24T23:29:25.763Z,7.60
2019-01-24T23:31:55.910Z,6.93
2019-01-24T23:34:25.906Z,7.43
2019-01-24T23:36:56.878Z,7.23
2019-01-24T23:39:26.820Z,7.67
2019-01-24T23:41:56.968Z,7.20
2019-01-24T23:44:26.979Z,7.13
2019-01-24T23:46:56.874Z,6.77
2019-01-24T23:49:26.654Z,7.00
2019-01-24T23:51:56.533Z,7.30
2019-01-24T23:54:26.390Z,6.80
2019-01-24T23:56:56.765Z,6.80
2019-01-24T23:59:28.749Z,6.50
